Airfield :
LOGIN :

Register | Disclaimer

   EN    FR    IT 

 










Legend :    VFR   Marginal VFR   IFR   Intensive IFR   Very Intensive IFR
Visi :
Ceiling :
>= 8 km
>= 3000ft
5 to 8 km
1000 to 3000 ft
1500m to 5 km
500 to 1000 ft
800 to 1500m
200 to 500 ft
< 800m
< 200 ft
Symbols :   Thunderstorms  Fog  Heavy snow  Heavy precipitations  Wind > 20 kt
SIGMETs :     Misc.  Thunderstorms  Icing  Turbulence  Mountain Waves  Volcanic Ashes







- Airport Elevation : 614 ft
- IATA code : CRL


EBCI - Charleroi

CURRENT METAR :
  • 201750Z 32004KT 260V360 9999 SCT022 21/17 Q1021 NOSIG

EXPIRED METARs :
  • 201720Z 27004KT 240V310 9999 SCT024 21/17 Q1021 NOSIG
  • 201650Z 28004KT 240V310 9999 SCT024 22/16 Q1021 NOSIG
  • 201620Z 26004KT 230V320 9999 SCT024 22/16 Q1021 NOSIG
  • 201550Z 26005KT 200V300 9999 SCT024 22/16 Q1021 NOSIG
  • 201520Z 25005KT 210V300 9999 SCT024 22/17 Q1021 NOSIG

TAF TAF EBCI
Valid from the 20 at 18:00 until the 22 at 00:00 UTC


201730Z 2018/2124 36005KT 9999 SCT030 BKN040
TEMPO 2103/2107 4000 BR
PROB30
TEMPO 2104/2106 2500 BR
No reported NOTAMs for that airfield.



MET'MAP, your aeronautical weather chart ! - Copyright ORBIFLY December 2007 - Disclaimer

ORBIFLY MET'MAP TEAM :

Programming & Development : Alexandra Zaïnal
Concept & Development : Baudouin d'Aumeries
Co-Development & Prog : Marc-Olivier Méhu
Technical & hardware support : Manuel Goepfert

Contact : metmap@orbifly.com




SOURCES & CREDITS :

   NOAA